Hampton Falls, New Hampshire
Current Conditions -  °F | °C
As of 12:58 PM on Monday 20 Oct 2014 (Local Time) from KPSM Reporting Station
Scattered Clouds Scattered Clouds  
Wind Chill: 11°   Ceiling: Unl
Heat Index: 11°   Visibility: 10mi
Dew Point: -3°   Wind: 12mph
Humidity: 40%   Direction: 270°W
Pressure: 29.98"   Gusts: 21mph
Location:  42.92°N, 70.86°W
Report Text: KPSM 201658Z 27010G18KT 10SM SCT130 11/M02 A2998 RMK AO2A SLP156 T01051025
Loading
Personal Weather Stations






























Interactive Weather Map
Tropical Storm Tracking
New forecast layout! Learn more

10-Day Weather Forecast

Advertisements
Track Severe Weather on mobile